Argonia, Kansas
Current Conditions -  °F | °C
As of 9:53 PM on Sunday 23 Nov 2014 (Local Time) from KICT Reporting Station
Broken Clouds Broken Clouds  
Wind Chill: 35°   Ceiling: 20000
Heat Index: 43°   Visibility: 10mi
Dew Point: 32°   Wind: 16mph
Humidity: 65%   Direction: 320°NW
Pressure: 29.65"   Gusts: NA
Location:  37.27°N, 97.77°W
Report Text: KICT 240353Z 32014KT 10SM SCT150 BKN200 06/00 A2965 RMK AO2 SLP042 T00610000 $
Loading
Personal Weather Stations






























Interactive Weather Map New forecast layout! Learn more

10-Day Weather Forecast

Advertisements
Track Severe Weather on mobile